• Join FlightAware (Why Join?)
  • Login
  • US Flag 
05:14AM EDT


 

Airport Tracker/Info


-or-


 

Live Flight TrackerFlight Track Log ✈ DAL1784 ✈ 30-Apr-2012 ✈ KCHS - KATL

Flight Track Log - Related Links

Times and Time Zones

All times are in EDT time to prevent confusion due to time zone crossing. See the DAL1784 flight status page for this flight to view local times or setup timezone preferences in your user account.

Time Position Orientation Groundspeed Altitude Reporting Facility
EDT Latitude Longitude Course Direction KTS MPH feet Rate Location/Type
12:56PM 32.8581 -80.0981 280° West 254 292 4,000  Level Jacksonville Center
12:57PM 32.8700 -80.1769 284° West 269 310 6,000 2,520 Climbing Jacksonville Center
12:58PM 32.8886 -80.2678 283° West 281 323 9,100 2,400 Climbing Jacksonville Center
12:59PM 32.9075 -80.3664 285° West 288 331 10,900 1,740 Climbing Jacksonville Center
01:00PM 32.9328 -80.4819 288° West 324 373 12,600 2,040 Climbing Jacksonville Center
01:01PM 32.9664 -80.6047 301° West 367 422 15,000 2,280 Climbing Jacksonville Center
01:02PM 33.0247 -80.7197 300° West 388 447 17,200 1,920 Climbing Jacksonville Center
01:03PM 33.0831 -80.8397 300° West 409 471 18,900 1,800 Climbing Jacksonville Center
01:04PM 33.1433 -80.9650 300° West 421 484 20,900 1,500 Climbing Jacksonville Center
01:05PM 33.2036 -81.0903 299° West 427 491 22,000 540 Climbing Jacksonville Center
01:06PM 33.2617 -81.2133 284° West 427 491 22,000  Level Jacksonville Center
01:07PM 33.2928 -81.3592 271° West 433 498 22,000  Level Jacksonville Center
01:09PM 33.2953 -81.5561 270° West 420 483 22,000  Level Atlanta Center
01:10PM 33.2961 -81.6978 271° West 420 483 22,000  Level Atlanta Center
01:11PM 33.2986 -81.8392 270° West 420 483 22,000  Level Atlanta Center
01:12PM 33.2989 -81.9783 270° West 420 483 22,000  Level Atlanta Center
01:13PM 33.2992 -82.1175 271° West 420 483 22,000  Level Atlanta Center
01:14PM 33.3014 -82.2592 270° West 420 483 22,000  Level Atlanta Center
01:15PM 33.3011 -82.3983 271° West 420 483 22,000  Level Atlanta Center
01:16PM 33.3031 -82.5400 267° West 420 483 22,000  Level Atlanta Center
01:17PM 33.2961 -82.6794 265° West 420 483 22,000  Level Atlanta Center
01:18PM 33.2850 -82.8186 267° West 420 483 22,000  Level Atlanta Center
01:19PM 33.2781 -82.9603 265° West 425 489 22,000  Level Atlanta Center
01:20PM 33.2667 -83.1022 265° West 425 489 22,000  Level Atlanta Center
01:21PM 33.2572 -83.2439 265° West 431 496 22,000 -60 Level Atlanta Center
01:22PM 33.2456 -83.3881 266° West 436 502 21,900 -1,200 Descending Atlanta Center
01:23PM 33.2381 -83.5222 268° West 431 496 19,600 -2,580 Descending Atlanta Center
01:24PM 33.2333 -83.6500 262° West 407 468 17,200 -2,700 Descending Atlanta TRACON
01:25PM 33.2167 -83.7833 304° West 391 450 14,400 -1,920 Descending Atlanta TRACON
01:26PM 33.2833 -83.9000 305° West 396 456 13,200 -1,200 Descending Atlanta TRACON
01:27PM 33.3475 -84.0089 310° West 376 433 12,000 -600 Descending Atlanta Center
01:28PM 33.4144 -84.1061 311° West 384 442 12,000  Level Atlanta Center
01:29PM 33.4833 -84.2000 306° West 381 438 12,000 -60 Level Atlanta TRACON
01:30PM 33.5333 -84.2833 284° West 314 361 11,900 -420 Descending Atlanta TRACON
01:31PM 33.5500 -84.3667 270° West 254 292 11,200 -1,200 Descending Atlanta TRACON
01:32PM 33.5500 -84.4500 270° West 247 284 9,600 -1,800 Descending Atlanta TRACON
01:33PM 33.5500 -84.5333 270° West 223 257 7,700 -2,220 Descending Atlanta TRACON
01:34PM 33.5500 -84.6000 360° North 227 261 5,200 -2,040 Descending Atlanta TRACON
01:35PM 33.6167 -84.6000 90° East 218 251 3,500 -1,320 Descending Atlanta TRACON
01:36PM 33.6167 -84.5500 90° East 192 221 2,600 -900 Descending Atlanta TRACON
01:37PM 33.6167 -84.4833 90° East 157 181 1,700 -840 Descending Atlanta TRACON